Manville, Wyoming
Current Conditions -  °F | °C
As of 8:55 PM on Sunday 21 Dec 2014 (Local Time) from KGUR Reporting Station
Clear Clear  
Wind Chill: 33°   Ceiling: Unl
Heat Index: 39°   Visibility: 10mi
Dew Point: 37°   Wind: 9mph
Humidity: 93%   Direction: 270°W
Pressure: 29.62"   Gusts: NA
Location:  42.78°N, 104.62°W
Report Text: KGUR 220355Z AUTO 27008KT 10SM CLR 04/03 A2962 RMK AO2 T00410030
Loading
Personal Weather Stations






























Interactive Weather Map New forecast layout! Learn more

10-Day Weather Forecast

Advertisements
Track Severe Weather on mobile